METAR Data
IDs: Format: Raw Decoded Include TAF

Data at: 1501 UTC 22 Apr 2021

KINF 221455Z AUTO 04007KT 7SM CLR 17/06 A3017 RMK AO2
KINF 221435Z AUTO 03011KT 5SM HZ CLR 17/05 A3016 RMK AO2
KINF 221415Z AUTO 7SM CLR 16/05 A3016 RMK AO2
KINF 221355Z AUTO 04008KT 7SM CLR 16/05 A3016 RMK AO2
KINF 221335Z AUTO 7SM CLR 15/05 A3016 RMK AO2
KINF 221315Z AUTO 5SM HZ CLR 15/05 A3016 RMK AO2
KINF 221255Z AUTO 7SM CLR 14/06 A3015 RMK AO2
KINF 221235Z AUTO 7SM CLR 13/06 A3015 RMK AO2
KINF 221215Z AUTO 7SM CLR 13/06 A3014 RMK AO2
KINF 221155Z AUTO 03007KT 7SM CLR 13/06 A3013 RMK AO2
KINF 221135Z AUTO 01007KT 10SM CLR 13/06 A3011 RMK AO2
KINF 221115Z AUTO 01004KT 7SM CLR 13/07 A3011 RMK AO2
KINF 221055Z AUTO 01005KT 10SM CLR 13/07 A3010 RMK AO2
KINF 221035Z AUTO 7SM CLR 13/08 A3009 RMK AO2
KINF 221015Z AUTO 7SM CLR 14/08 A3009 RMK AO2
KINF 220955Z AUTO 01006KT 7SM CLR 15/08 A3008 RMK AO2
KINF 220935Z AUTO 7SM CLR 15/10 A3007 RMK AO2
KINF 220915Z AUTO 10SM CLR 15/10 A3006 RMK AO2
KINF 220855Z AUTO 36009KT 7SM CLR 16/11 A3006 RMK AO2
KINF 220835Z AUTO 7SM CLR 16/12 A3005 RMK AO2
KINF 220815Z AUTO 7SM CLR 16/14 A3004 RMK AO2
KINF 220755Z AUTO 7SM CLR 17/15 A3003 RMK AO2
KINF 220735Z AUTO 7SM CLR 17/15 A3003 RMK AO2
KINF 220715Z AUTO 35005KT 7SM CLR 17/16 A3004 RMK AO2
KINF 220655Z AUTO 00000KT 7SM CLR 15/15 A3003 RMK AO2
KINF 220635Z AUTO 00000KT 7SM CLR 15/15 A3003 RMK AO2
KINF 220615Z AUTO 7SM CLR 15/15 A3003 RMK AO2
KINF 220555Z AUTO 7SM CLR 15/15 A3004 RMK AO2
KINF 220535Z AUTO 00000KT 7SM CLR 16/16 A3004 RMK AO2
KINF 220515Z AUTO 00000KT 7SM CLR 16/16 A3005 RMK AO2
KINF 220455Z AUTO 00000KT 7SM CLR 16/16 A3004 RMK AO2
KINF 220435Z AUTO 00000KT 7SM CLR 17/17 A3004 RMK AO2
KINF 220415Z AUTO 00000KT 7SM CLR 17/17 A3004 RMK AO2
KINF 220355Z AUTO 00000KT 7SM CLR 17/17 A3005 RMK AO2
KINF 220335Z AUTO 00000KT 7SM CLR 17/16 A3005 RMK AO2
KINF 220315Z AUTO 00000KT 7SM CLR 18/16 A3005 RMK AO2
KINF 220255Z AUTO 00000KT 10SM CLR 17/15 A3004 RMK AO2
KINF 220235Z AUTO 00000KT 7SM CLR 18/14 A3004 RMK AO2
KINF 220215Z AUTO 10SM CLR 18/14 A3003 RMK AO2
KINF 220155Z AUTO 00000KT 7SM CLR 18/13 A3002 RMK AO2
KINF 220135Z AUTO 00000KT 10SM CLR 20/13 A3001 RMK AO2
KINF 220115Z AUTO 00000KT 7SM CLR 20/13 A3000 RMK AO2
KINF 220055Z AUTO 00000KT 10SM CLR 21/12 A3000 RMK AO2
KINF 220035Z AUTO 00000KT 5SM HZ CLR 22/12 A3000 RMK AO2
KINF 220015Z AUTO 25003KT 7SM CLR 22/12 A3000 RMK AO2
KINF 212355Z AUTO 00000KT 7SM CLR 23/12 A2999 RMK AO2
KINF 212335Z AUTO 30004KT 7SM CLR 24/12 A2999 RMK AO2
KINF 212315Z AUTO 27003KT 7SM CLR 25/11 A2998 RMK AO2
KINF 212255Z AUTO 29004KT 7SM CLR 25/11 A2998 RMK AO2
KINF 212235Z AUTO 27004KT 7SM CLR 26/11 A2998 RMK AO2
KINF 212215Z AUTO 31005KT 7SM CLR 26/11 A2998 RMK AO2
KINF 212155Z AUTO 26003KT 10SM CLR 26/12 A2998 RMK AO2
KINF 212135Z AUTO 26005KT 7SM CLR 27/12 A2998 RMK AO2
KINF 212115Z AUTO 29005KT 7SM CLR 27/11 A2998 RMK AO2
KINF 212055Z AUTO 33005KT 7SM CLR 27/12 A2998 RMK AO2
KINF 212035Z AUTO 25005KT 7SM CLR 27/12 A2998 RMK AO2
KINF 212015Z AUTO 28004KT 7SM CLR 28/12 A2997 RMK AO2
KINF 211955Z AUTO 26005KT 7SM CLR 28/11 A2998 RMK AO2
KINF 211935Z AUTO 24006KT 7SM CLR 28/11 A2998 RMK AO2
KINF 211915Z AUTO 32003KT 7SM CLR 28/11 A2998 RMK AO2
KINF 211855Z AUTO 27005KT 7SM CLR 28/12 A2999 RMK AO2
KINF 211835Z AUTO 26003KT 10SM CLR 27/12 A2999 RMK AO2
KINF 211815Z AUTO 32003KT 7SM CLR 28/12 A3000 RMK AO2
KINF 211755Z AUTO 00000KT 7SM CLR 27/12 A3001 RMK AO2
KINF 211735Z AUTO 32004KT 7SM CLR 27/13 A3001 RMK AO2
KINF 211715Z AUTO 00000KT 10SM CLR 26/12 A3002 RMK AO2
KINF 211655Z AUTO 31005KT 10SM CLR 26/12 A3003 RMK AO2
KINF 211635Z AUTO 33004KT 7SM CLR 26/13 A3004 RMK AO2
KINF 211615Z AUTO 36004KT 10SM CLR 25/14 A3004 RMK AO2
KINF 211555Z AUTO 33003KT 7SM CLR 25/14 A3004 RMK AO2
KINF 211535Z AUTO 00000KT 7SM CLR 25/15 A3004 RMK AO2
KINF 211515Z AUTO 02003KT 7SM CLR 25/16 A3003 RMK AO2
KINF 211455Z AUTO 01004KT 5SM HZ CLR 23/16 A3002 RMK AO2
KINF 211435Z AUTO 34004KT 7SM CLR 23/15 A3001 RMK AO2
KINF 211415Z AUTO 34005KT 7SM CLR 22/16 A3001 RMK AO2
KINF 211355Z AUTO 33003KT 7SM CLR 22/17 A3001 RMK AO2
KINF 211335Z AUTO 36003KT 7SM CLR 21/20 A3002 RMK AO2
KINF 211315Z AUTO 35004KT 7SM CLR 19/19 A3001 RMK AO2
KINF 211255Z AUTO 00000KT 7SM CLR 19/19 A3001 RMK AO2
KINF 211235Z AUTO 00000KT 5SM BR CLR 19/19 A3001 RMK AO2
KINF 211215Z AUTO 35003KT 5SM BR CLR 18/18 A3000 RMK AO2
KINF 211155Z AUTO 00000KT 2 1/2SM BR SCT070 18/18 A3000 RMK AO2
KINF 211135Z AUTO 00000KT 2SM BR BKN070 18/18 A3000 RMK AO2
KINF 211115Z AUTO 00000KT 4SM BR BKN070 18/18 A2999 RMK AO2
KINF 211055Z AUTO 00000KT 4SM BR SCT002 BKN070 18/18 A2999 RMK AO2
KINF 211035Z AUTO 00000KT 3SM BR OVC002 18/18 A2999 RMK AO2
KINF 211015Z AUTO 00000KT 3/4SM BR OVC002 18/18 A2998 RMK AO2
KINF 210955Z AUTO 00000KT 1/4SM FG OVC002 18/18 A2998 RMK AO2
KINF 210935Z AUTO 00000KT 1/4SM FG OVC002 18/18 A2997 RMK AO2
KINF 210915Z AUTO 00000KT 1/4SM FG OVC002 18/18 A2997 RMK AO2
KINF 210855Z AUTO 00000KT 1SM BR OVC002 18/18 A2996 RMK AO2
KINF 210835Z AUTO 00000KT 4SM BR BKN002 BKN013 OVC021 18/18 A2996 RMK AO2
KINF 210815Z AUTO 00000KT 4SM BR BKN002 BKN011 OVC021 19/19 A2996 RMK AO2
KINF 210755Z AUTO 00000KT 4SM BR BKN002 BKN011 OVC020 18/18 A2996 RMK AO2
KINF 210735Z AUTO 00000KT 3SM BR SCT002 BKN021 OVC032 18/18 A2996 RMK AO2
KINF 210715Z AUTO 00000KT 4SM BR SCT014 BKN021 OVC028 18/18 A2996 RMK AO2
KINF 210655Z AUTO 00000KT 4SM BR SCT017 OVC030 18/18 A2996 RMK AO2
KINF 210635Z AUTO 00000KT 4SM BR BKN019 OVC032 18/18 A2997 RMK AO2
KINF 210615Z AUTO 00000KT 1 1/2SM BR SCT003 BKN019 BKN032 18/18 A2996 RMK AO2
KINF 210555Z AUTO 00000KT 1/2SM FG BKN003 BKN028 18/18 A2997 RMK AO2
KINF 210535Z AUTO 00000KT 2 1/2SM BR SCT100 18/18 A2997 RMK AO2 VIS 1V5
KINF 210515Z AUTO 00000KT 2SM BR SCT100 BKN120 18/18 A2997 RMK AO2 VIS 1V4
KINF 210455Z AUTO 00000KT 3SM BR SCT120 18/18 A2996 RMK AO2
KINF 210435Z AUTO 00000KT 3SM BR SCT120 18/18 A2997 RMK AO2
KINF 210415Z AUTO 00000KT 5SM BR SCT120 18/18 A2997 RMK AO2
KINF 210355Z AUTO 00000KT 5SM BR SCT110 18/18 A2997 RMK AO2
KINF 210335Z AUTO 00000KT 4SM BR BKN110 18/18 A2997 RMK AO2
KINF 210315Z AUTO 00000KT 5SM BR CLR 18/18 A2997 RMK AO2